sensor_id;sensor_type;location;lat;lon;timestamp;P1;durP1;ratioP1;P2;durP2;ratioP2
8636;SDS011;4356;49.068;8.658;2023-09-12T00:00:04;4.03;;;3.72;;
8636;SDS011;4356;49.068;8.658;2023-09-12T00:02:30;3.75;;;3.50;;
8636;SDS011;4356;49.068;8.658;2023-09-12T00:04:56;3.33;;;3.13;;
8636;SDS011;4356;49.068;8.658;2023-09-12T00:07:21;3.45;;;3.22;;
8636;SDS011;4356;49.068;8.658;2023-09-12T00:09:46;3.47;;;3.28;;
8636;SDS011;4356;49.068;8.658;2023-09-12T00:12:15;3.92;;;3.40;;
8636;SDS011;4356;49.068;8.658;2023-09-12T00:14:41;3.30;;;3.10;;
8636;SDS011;4356;49.068;8.658;2023-09-12T00:17:06;3.60;;;3.40;;
8636;SDS011;4356;49.068;8.658;2023-09-12T00:19:32;3.83;;;3.53;;
8636;SDS011;4356;49.068;8.658;2023-09-12T00:21:57;4.18;;;3.78;;
8636;SDS011;4356;49.068;8.658;2023-09-12T00:24:23;3.53;;;3.33;;
8636;SDS011;4356;49.068;8.658;2023-09-12T00:26:48;3.20;;;3.00;;
8636;SDS011;4356;49.068;8.658;2023-09-12T00:29:13;3.88;;;3.58;;
8636;SDS011;4356;49.068;8.658;2023-09-12T00:31:39;3.22;;;3.03;;
8636;SDS011;4356;49.068;8.658;2023-09-12T00:34:04;3.65;;;3.35;;
8636;SDS011;4356;49.068;8.658;2023-09-12T00:36:29;3.47;;;3.28;;
8636;SDS011;4356;49.068;8.658;2023-09-12T00:38:55;3.67;;;3.40;;
8636;SDS011;4356;49.068;8.658;2023-09-12T00:41:20;5.80;;;3.80;;
8636;SDS011;4356;49.068;8.658;2023-09-12T00:43:45;3.60;;;3.28;;
8636;SDS011;4356;49.068;8.658;2023-09-12T00:46:11;3.87;;;3.57;;
8636;SDS011;4356;49.068;8.658;2023-09-12T00:48:43;3.50;;;3.30;;
8636;SDS011;4356;49.068;8.658;2023-09-12T00:51:08;3.35;;;3.15;;
8636;SDS011;4356;49.068;8.658;2023-09-12T00:53:35;3.60;;;3.30;;
8636;SDS011;4356;49.068;8.658;2023-09-12T00:56:00;3.58;;;3.20;;
8636;SDS011;4356;49.068;8.658;2023-09-12T00:58:26;3.53;;;3.20;;
8636;SDS011;4356;49.068;8.658;2023-09-12T01:00:52;3.25;;;2.95;;
8636;SDS011;4356;49.068;8.658;2023-09-12T01:03:18;3.65;;;3.45;;
8636;SDS011;4356;49.068;8.658;2023-09-12T01:05:43;3.85;;;3.60;;
8636;SDS011;4356;49.068;8.658;2023-09-12T01:08:10;3.25;;;3.05;;
8636;SDS011;4356;49.068;8.658;2023-09-12T01:10:36;5.05;;;3.75;;
8636;SDS011;4356;49.068;8.658;2023-09-12T01:13:01;3.92;;;3.63;;
8636;SDS011;4356;49.068;8.658;2023-09-12T01:15:27;3.60;;;3.40;;
8636;SDS011;4356;49.068;8.658;2023-09-12T01:17:52;3.90;;;3.50;;
8636;SDS011;4356;49.068;8.658;2023-09-12T01:20:25;3.88;;;3.63;;
8636;SDS011;4356;49.068;8.658;2023-09-12T01:26:10;3.53;;;3.13;;
8636;SDS011;4356;49.068;8.658;2023-09-12T01:28:39;3.70;;;3.50;;
8636;SDS011;4356;49.068;8.658;2023-09-12T01:31:07;3.95;;;3.65;;
8636;SDS011;4356;49.068;8.658;2023-09-12T01:33:34;5.05;;;3.67;;
8636;SDS011;4356;49.068;8.658;2023-09-12T01:35:59;3.53;;;3.33;;
8636;SDS011;4356;49.068;8.658;2023-09-12T01:38:25;3.60;;;3.00;;
8636;SDS011;4356;49.068;8.658;2023-09-12T01:40:51;5.68;;;3.40;;
8636;SDS011;4356;49.068;8.658;2023-09-12T01:43:21;4.18;;;3.72;;
8636;SDS011;4356;49.068;8.658;2023-09-12T01:45:49;3.60;;;3.40;;
8636;SDS011;4356;49.068;8.658;2023-09-12T01:48:21;3.77;;;3.47;;
8636;SDS011;4356;49.068;8.658;2023-09-12T01:50:49;3.42;;;3.22;;
8636;SDS011;4356;49.068;8.658;2023-09-12T01:53:15;4.10;;;3.70;;
8636;SDS011;4356;49.068;8.658;2023-09-12T01:55:42;3.70;;;3.50;;
8636;SDS011;4356;49.068;8.658;2023-09-12T01:58:08;3.53;;;3.33;;
8636;SDS011;4356;49.068;8.658;2023-09-12T02:00:33;3.70;;;3.50;;
8636;SDS011;4356;49.068;8.658;2023-09-12T02:03:00;3.83;;;3.43;;
8636;SDS011;4356;49.068;8.658;2023-09-12T02:05:26;4.00;;;3.70;;
8636;SDS011;4356;49.068;8.658;2023-09-12T02:07:51;3.83;;;3.60;;
8636;SDS011;4356;49.068;8.658;2023-09-12T02:10:17;3.78;;;3.45;;
8636;SDS011;4356;49.068;8.658;2023-09-12T02:12:42;4.87;;;3.77;;
8636;SDS011;4356;49.068;8.658;2023-09-12T02:15:08;3.17;;;3.00;;
8636;SDS011;4356;49.068;8.658;2023-09-12T02:17:34;3.60;;;3.40;;
8636;SDS011;4356;49.068;8.658;2023-09-12T02:19:59;3.50;;;3.30;;
8636;SDS011;4356;49.068;8.658;2023-09-12T02:22:24;3.50;;;3.17;;
8636;SDS011;4356;49.068;8.658;2023-09-12T02:24:50;3.57;;;3.37;;
8636;SDS011;4356;49.068;8.658;2023-09-12T02:27:15;4.73;;;3.70;;
8636;SDS011;4356;49.068;8.658;2023-09-12T02:29:41;3.20;;;3.00;;
8636;SDS011;4356;49.068;8.658;2023-09-12T02:32:08;3.47;;;3.20;;
8636;SDS011;4356;49.068;8.658;2023-09-12T02:34:34;3.33;;;3.10;;
8636;SDS011;4356;49.068;8.658;2023-09-12T02:36:59;3.43;;;3.23;;
8636;SDS011;4356;49.068;8.658;2023-09-12T02:39:25;3.67;;;3.47;;
8636;SDS011;4356;49.068;8.658;2023-09-12T02:41:51;4.20;;;3.22;;
8636;SDS011;4356;49.068;8.658;2023-09-12T02:44:16;5.13;;;3.57;;
8636;SDS011;4356;49.068;8.658;2023-09-12T02:46:41;3.63;;;3.43;;
8636;SDS011;4356;49.068;8.658;2023-09-12T02:49:07;4.30;;;3.40;;
8636;SDS011;4356;49.068;8.658;2023-09-12T02:51:32;6.00;;;3.47;;
8636;SDS011;4356;49.068;8.658;2023-09-12T02:53:58;4.03;;;3.70;;
8636;SDS011;4356;49.068;8.658;2023-09-12T02:56:23;3.70;;;3.50;;
8636;SDS011;4356;49.068;8.658;2023-09-12T02:58:49;3.80;;;3.40;;
8636;SDS011;4356;49.068;8.658;2023-09-12T03:01:18;3.80;;;3.47;;
8636;SDS011;4356;49.068;8.658;2023-09-12T03:03:48;4.23;;;3.60;;
8636;SDS011;4356;49.068;8.658;2023-09-12T03:06:16;3.07;;;2.87;;
8636;SDS011;4356;49.068;8.658;2023-09-12T03:08:43;3.60;;;3.30;;
8636;SDS011;4356;49.068;8.658;2023-09-12T03:11:09;3.73;;;3.43;;
8636;SDS011;4356;49.068;8.658;2023-09-12T03:13:39;3.83;;;3.57;;
8636;SDS011;4356;49.068;8.658;2023-09-12T03:16:09;4.10;;;3.30;;
8636;SDS011;4356;49.068;8.658;2023-09-12T03:18:39;3.73;;;3.47;;
8636;SDS011;4356;49.068;8.658;2023-09-12T03:21:05;3.57;;;3.37;;
8636;SDS011;4356;49.068;8.658;2023-09-12T03:23:30;3.77;;;3.50;;
8636;SDS011;4356;49.068;8.658;2023-09-12T03:26:00;4.53;;;3.70;;
8636;SDS011;4356;49.068;8.658;2023-09-12T03:28:27;3.97;;;3.77;;
8636;SDS011;4356;49.068;8.658;2023-09-12T03:30:53;3.73;;;3.47;;
8636;SDS011;4356;49.068;8.658;2023-09-12T03:33:30;3.70;;;3.43;;
8636;SDS011;4356;49.068;8.658;2023-09-12T03:35:55;3.63;;;3.33;;
8636;SDS011;4356;49.068;8.658;2023-09-12T03:38:20;3.80;;;3.60;;
8636;SDS011;4356;49.068;8.658;2023-09-12T03:40:45;3.93;;;3.67;;
8636;SDS011;4356;49.068;8.658;2023-09-12T03:43:11;4.13;;;3.47;;
8636;SDS011;4356;49.068;8.658;2023-09-12T03:45:36;7.37;;;3.73;;
8636;SDS011;4356;49.068;8.658;2023-09-12T03:48:02;4.10;;;3.57;;
8636;SDS011;4356;49.068;8.658;2023-09-12T03:50:28;3.97;;;3.67;;
8636;SDS011;4356;49.068;8.658;2023-09-12T03:52:53;5.17;;;3.60;;
8636;SDS011;4356;49.068;8.658;2023-09-12T03:55:18;3.63;;;3.33;;
8636;SDS011;4356;49.068;8.658;2023-09-12T03:57:44;3.37;;;3.07;;
8636;SDS011;4356;49.068;8.658;2023-09-12T04:00:09;4.80;;;3.67;;
8636;SDS011;4356;49.068;8.658;2023-09-12T04:02:35;4.10;;;3.70;;
8636;SDS011;4356;49.068;8.658;2023-09-12T04:05:00;4.50;;;4.10;;
8636;SDS011;4356;49.068;8.658;2023-09-12T04:07:26;6.73;;;4.10;;
8636;SDS011;4356;49.068;8.658;2023-09-12T04:09:51;5.70;;;4.00;;
8636;SDS011;4356;49.068;8.658;2023-09-12T04:12:16;3.80;;;3.60;;
8636;SDS011;4356;49.068;8.658;2023-09-12T04:14:42;4.13;;;3.70;;
8636;SDS011;4356;49.068;8.658;2023-09-12T04:17:07;4.03;;;3.73;;
8636;SDS011;4356;49.068;8.658;2023-09-12T04:19:33;3.50;;;3.30;;
8636;SDS011;4356;49.068;8.658;2023-09-12T04:21:58;3.57;;;3.27;;
8636;SDS011;4356;49.068;8.658;2023-09-12T04:24:25;4.07;;;3.77;;
8636;SDS011;4356;49.068;8.658;2023-09-12T04:26:50;3.90;;;3.53;;
8636;SDS011;4356;49.068;8.658;2023-09-12T04:29:15;4.13;;;3.77;;
8636;SDS011;4356;49.068;8.658;2023-09-12T04:31:40;6.17;;;3.50;;
8636;SDS011;4356;49.068;8.658;2023-09-12T04:34:06;5.63;;;3.87;;
8636;SDS011;4356;49.068;8.658;2023-09-12T04:36:31;3.70;;;3.50;;
8636;SDS011;4356;49.068;8.658;2023-09-12T04:38:57;4.10;;;3.80;;
8636;SDS011;4356;49.068;8.658;2023-09-12T04:41:23;3.80;;;3.50;;
8636;SDS011;4356;49.068;8.658;2023-09-12T04:43:48;3.97;;;3.73;;
8636;SDS011;4356;49.068;8.658;2023-09-12T04:46:13;4.17;;;3.97;;
8636;SDS011;4356;49.068;8.658;2023-09-12T04:48:39;4.03;;;3.77;;
8636;SDS011;4356;49.068;8.658;2023-09-12T04:51:05;3.87;;;3.67;;
8636;SDS011;4356;49.068;8.658;2023-09-12T04:53:30;3.37;;;3.17;;
8636;SDS011;4356;49.068;8.658;2023-09-12T04:56:00;4.20;;;3.63;;
8636;SDS011;4356;49.068;8.658;2023-09-12T04:58:28;3.97;;;3.60;;
8636;SDS011;4356;49.068;8.658;2023-09-12T05:00:54;3.53;;;3.33;;
8636;SDS011;4356;49.068;8.658;2023-09-12T05:03:20;4.10;;;3.73;;
8636;SDS011;4356;49.068;8.658;2023-09-12T05:05:46;3.53;;;3.33;;
8636;SDS011;4356;49.068;8.658;2023-09-12T05:08:12;3.83;;;3.53;;
8636;SDS011;4356;49.068;8.658;2023-09-12T05:10:38;4.93;;;4.40;;
8636;SDS011;4356;49.068;8.658;2023-09-12T05:13:04;3.90;;;3.53;;
8636;SDS011;4356;49.068;8.658;2023-09-12T05:15:29;8.63;;;4.27;;
8636;SDS011;4356;49.068;8.658;2023-09-12T05:17:55;4.37;;;4.07;;
8636;SDS011;4356;49.068;8.658;2023-09-12T05:20:20;4.20;;;3.90;;
8636;SDS011;4356;49.068;8.658;2023-09-12T05:22:45;4.13;;;3.80;;
8636;SDS011;4356;49.068;8.658;2023-09-12T05:25:11;3.93;;;3.67;;
8636;SDS011;4356;49.068;8.658;2023-09-12T05:27:36;4.10;;;3.80;;
8636;SDS011;4356;49.068;8.658;2023-09-12T05:30:01;4.23;;;3.83;;
8636;SDS011;4356;49.068;8.658;2023-09-12T05:32:27;3.93;;;3.63;;
8636;SDS011;4356;49.068;8.658;2023-09-12T05:34:52;4.20;;;3.70;;
8636;SDS011;4356;49.068;8.658;2023-09-12T05:37:18;4.10;;;3.80;;
8636;SDS011;4356;49.068;8.658;2023-09-12T05:39:44;4.17;;;3.93;;
8636;SDS011;4356;49.068;8.658;2023-09-12T05:42:09;3.93;;;3.73;;
8636;SDS011;4356;49.068;8.658;2023-09-12T05:44:34;4.17;;;3.87;;
8636;SDS011;4356;49.068;8.658;2023-09-12T05:47:00;5.17;;;4.30;;
8636;SDS011;4356;49.068;8.658;2023-09-12T05:49:25;4.23;;;3.90;;
8636;SDS011;4356;49.068;8.658;2023-09-12T05:51:50;7.37;;;4.40;;
8636;SDS011;4356;49.068;8.658;2023-09-12T05:54:16;8.53;;;4.10;;
8636;SDS011;4356;49.068;8.658;2023-09-12T05:56:42;4.10;;;3.90;;
8636;SDS011;4356;49.068;8.658;2023-09-12T05:59:07;3.87;;;3.57;;
8636;SDS011;4356;49.068;8.658;2023-09-12T06:01:32;4.20;;;3.87;;
8636;SDS011;4356;49.068;8.658;2023-09-12T06:03:58;4.27;;;4.03;;
8636;SDS011;4356;49.068;8.658;2023-09-12T06:06:24;4.23;;;3.97;;
8636;SDS011;4356;49.068;8.658;2023-09-12T06:08:49;5.03;;;4.53;;
8636;SDS011;4356;49.068;8.658;2023-09-12T06:11:14;4.93;;;4.23;;
8636;SDS011;4356;49.068;8.658;2023-09-12T06:13:40;4.30;;;4.00;;
8636;SDS011;4356;49.068;8.658;2023-09-12T06:16:05;4.37;;;3.97;;
8636;SDS011;4356;49.068;8.658;2023-09-12T06:18:31;8.27;;;4.10;;
8636;SDS011;4356;49.068;8.658;2023-09-12T06:20:58;4.77;;;4.30;;
8636;SDS011;4356;49.068;8.658;2023-09-12T06:23:24;4.50;;;4.10;;
8636;SDS011;4356;49.068;8.658;2023-09-12T06:25:49;4.33;;;4.10;;
8636;SDS011;4356;49.068;8.658;2023-09-12T06:28:24;4.33;;;4.03;;
8636;SDS011;4356;49.068;8.658;2023-09-12T06:30:53;4.40;;;4.00;;
8636;SDS011;4356;49.068;8.658;2023-09-12T06:33:18;4.40;;;4.10;;
8636;SDS011;4356;49.068;8.658;2023-09-12T06:35:47;4.73;;;4.33;;
8636;SDS011;4356;49.068;8.658;2023-09-12T06:38:13;4.50;;;4.23;;
8636;SDS011;4356;49.068;8.658;2023-09-12T06:40:38;4.47;;;4.17;;
8636;SDS011;4356;49.068;8.658;2023-09-12T06:43:04;4.53;;;4.23;;
8636;SDS011;4356;49.068;8.658;2023-09-12T06:45:29;5.27;;;4.73;;
8636;SDS011;4356;49.068;8.658;2023-09-12T06:47:57;5.90;;;4.80;;
8636;SDS011;4356;49.068;8.658;2023-09-12T06:50:23;5.53;;;4.80;;
8636;SDS011;4356;49.068;8.658;2023-09-12T06:52:48;5.03;;;4.53;;
8636;SDS011;4356;49.068;8.658;2023-09-12T06:55:13;5.03;;;4.63;;
8636;SDS011;4356;49.068;8.658;2023-09-12T06:57:39;6.00;;;4.43;;
8636;SDS011;4356;49.068;8.658;2023-09-12T07:00:05;4.57;;;4.17;;
8636;SDS011;4356;49.068;8.658;2023-09-12T07:02:35;5.40;;;5.00;;
8636;SDS011;4356;49.068;8.658;2023-09-12T07:05:00;8.27;;;5.00;;
8636;SDS011;4356;49.068;8.658;2023-09-12T07:07:25;4.70;;;4.40;;
8636;SDS011;4356;49.068;8.658;2023-09-12T07:09:51;5.77;;;5.20;;
8636;SDS011;4356;49.068;8.658;2023-09-12T07:12:16;8.40;;;4.77;;
8636;SDS011;4356;49.068;8.658;2023-09-12T07:14:42;5.57;;;5.13;;
8636;SDS011;4356;49.068;8.658;2023-09-12T07:17:07;9.13;;;5.33;;
8636;SDS011;4356;49.068;8.658;2023-09-12T07:19:33;5.13;;;4.73;;
8636;SDS011;4356;49.068;8.658;2023-09-12T07:21:58;5.23;;;4.73;;
8636;SDS011;4356;49.068;8.658;2023-09-12T07:24:27;6.07;;;5.47;;
8636;SDS011;4356;49.068;8.658;2023-09-12T07:26:52;5.73;;;5.10;;
8636;SDS011;4356;49.068;8.658;2023-09-12T07:29:18;6.87;;;5.10;;
8636;SDS011;4356;49.068;8.658;2023-09-12T07:31:44;5.27;;;4.87;;
8636;SDS011;4356;49.068;8.658;2023-09-12T07:34:09;5.53;;;5.07;;
8636;SDS011;4356;49.068;8.658;2023-09-12T07:36:36;5.37;;;5.00;;
8636;SDS011;4356;49.068;8.658;2023-09-12T07:39:02;6.17;;;5.10;;
8636;SDS011;4356;49.068;8.658;2023-09-12T07:41:29;5.50;;;4.97;;
8636;SDS011;4356;49.068;8.658;2023-09-12T07:43:55;5.70;;;5.20;;
8636;SDS011;4356;49.068;8.658;2023-09-12T07:46:20;8.20;;;5.17;;
8636;SDS011;4356;49.068;8.658;2023-09-12T07:48:46;5.47;;;5.00;;
8636;SDS011;4356;49.068;8.658;2023-09-12T07:51:12;6.13;;;5.03;;
8636;SDS011;4356;49.068;8.658;2023-09-12T07:53:39;5.57;;;5.07;;
8636;SDS011;4356;49.068;8.658;2023-09-12T07:56:05;5.07;;;4.57;;
8636;SDS011;4356;49.068;8.658;2023-09-12T07:58:30;7.37;;;5.40;;
8636;SDS011;4356;49.068;8.658;2023-09-12T08:00:55;5.57;;;4.73;;
8636;SDS011;4356;49.068;8.658;2023-09-12T08:03:21;7.87;;;4.90;;
8636;SDS011;4356;49.068;8.658;2023-09-12T08:05:56;5.23;;;4.83;;
8636;SDS011;4356;49.068;8.658;2023-09-12T08:08:22;7.73;;;5.20;;
8636;SDS011;4356;49.068;8.658;2023-09-12T08:10:48;6.30;;;4.80;;
8636;SDS011;4356;49.068;8.658;2023-09-12T08:13:14;5.03;;;4.53;;
8636;SDS011;4356;49.068;8.658;2023-09-12T08:15:39;8.03;;;5.07;;
8636;SDS011;4356;49.068;8.658;2023-09-12T08:18:05;7.27;;;5.13;;
8636;SDS011;4356;49.068;8.658;2023-09-12T08:20:30;6.23;;;4.60;;
8636;SDS011;4356;49.068;8.658;2023-09-12T08:22:55;6.33;;;5.00;;
8636;SDS011;4356;49.068;8.658;2023-09-12T08:25:21;6.60;;;4.87;;
8636;SDS011;4356;49.068;8.658;2023-09-12T08:27:46;5.87;;;4.93;;
8636;SDS011;4356;49.068;8.658;2023-09-12T08:30:12;5.93;;;4.73;;
8636;SDS011;4356;49.068;8.658;2023-09-12T08:32:38;6.83;;;4.77;;
8636;SDS011;4356;49.068;8.658;2023-09-12T08:35:05;6.40;;;4.77;;
8636;SDS011;4356;49.068;8.658;2023-09-12T08:37:31;5.03;;;4.63;;
8636;SDS011;4356;49.068;8.658;2023-09-12T08:39:57;5.53;;;4.90;;
8636;SDS011;4356;49.068;8.658;2023-09-12T08:42:24;5.03;;;4.63;;
8636;SDS011;4356;49.068;8.658;2023-09-12T08:44:52;4.90;;;4.33;;
8636;SDS011;4356;49.068;8.658;2023-09-12T08:47:18;4.53;;;4.23;;
8636;SDS011;4356;49.068;8.658;2023-09-12T08:49:46;8.73;;;5.23;;
8636;SDS011;4356;49.068;8.658;2023-09-12T08:52:11;5.87;;;5.13;;
8636;SDS011;4356;49.068;8.658;2023-09-12T08:54:37;7.93;;;5.53;;
8636;SDS011;4356;49.068;8.658;2023-09-12T08:57:03;4.73;;;4.43;;
8636;SDS011;4356;49.068;8.658;2023-09-12T08:59:31;5.27;;;4.83;;
8636;SDS011;4356;49.068;8.658;2023-09-12T09:01:58;5.30;;;4.80;;
8636;SDS011;4356;49.068;8.658;2023-09-12T09:04:25;5.10;;;4.60;;
8636;SDS011;4356;49.068;8.658;2023-09-12T09:06:55;6.37;;;4.43;;
8636;SDS011;4356;49.068;8.658;2023-09-12T09:09:23;6.03;;;5.53;;
8636;SDS011;4356;49.068;8.658;2023-09-12T09:11:49;5.93;;;5.03;;
8636;SDS011;4356;49.068;8.658;2023-09-12T09:14:15;5.87;;;4.90;;
8636;SDS011;4356;49.068;8.658;2023-09-12T09:16:40;5.17;;;4.87;;
8636;SDS011;4356;49.068;8.658;2023-09-12T09:19:06;4.97;;;4.57;;
8636;SDS011;4356;49.068;8.658;2023-09-12T09:21:35;4.88;;;4.57;;
8636;SDS011;4356;49.068;8.658;2023-09-12T09:24:04;5.60;;;5.20;;
8636;SDS011;4356;49.068;8.658;2023-09-12T09:26:41;4.73;;;4.40;;
8636;SDS011;4356;49.068;8.658;2023-09-12T09:29:10;6.43;;;4.75;;
8636;SDS011;4356;49.068;8.658;2023-09-12T09:31:41;8.43;;;4.93;;
8636;SDS011;4356;49.068;8.658;2023-09-12T09:34:14;8.20;;;4.40;;
8636;SDS011;4356;49.068;8.658;2023-09-12T09:36:41;4.90;;;4.50;;
8636;SDS011;4356;49.068;8.658;2023-09-12T09:39:08;4.80;;;4.40;;
8636;SDS011;4356;49.068;8.658;2023-09-12T09:41:34;4.80;;;4.50;;
8636;SDS011;4356;49.068;8.658;2023-09-12T09:44:00;4.78;;;4.38;;
8636;SDS011;4356;49.068;8.658;2023-09-12T09:46:26;5.55;;;4.88;;
8636;SDS011;4356;49.068;8.658;2023-09-12T09:48:52;5.03;;;4.65;;
8636;SDS011;4356;49.068;8.658;2023-09-12T09:51:18;5.30;;;4.90;;
8636;SDS011;4356;49.068;8.658;2023-09-12T09:53:44;5.60;;;5.07;;
8636;SDS011;4356;49.068;8.658;2023-09-12T09:58:36;5.63;;;5.20;;
8636;SDS011;4356;49.068;8.658;2023-09-12T10:01:12;5.13;;;4.72;;
8636;SDS011;4356;49.068;8.658;2023-09-12T10:03:39;4.80;;;4.40;;
8636;SDS011;4356;49.068;8.658;2023-09-12T10:06:06;5.00;;;4.60;;
8636;SDS011;4356;49.068;8.658;2023-09-12T10:08:33;5.43;;;4.93;;
8636;SDS011;4356;49.068;8.658;2023-09-12T10:11:00;4.95;;;4.57;;
8636;SDS011;4356;49.068;8.658;2023-09-12T10:13:27;5.05;;;4.75;;
8636;SDS011;4356;49.068;8.658;2023-09-12T10:15:58;4.82;;;4.53;;
8636;SDS011;4356;49.068;8.658;2023-09-12T10:18:26;5.30;;;4.90;;
8636;SDS011;4356;49.068;8.658;2023-09-12T10:21:01;4.75;;;4.30;;
8636;SDS011;4356;49.068;8.658;2023-09-12T10:23:39;5.70;;;4.68;;
8636;SDS011;4356;49.068;8.658;2023-09-12T10:26:12;5.40;;;4.60;;
8636;SDS011;4356;49.068;8.658;2023-09-12T10:28:42;4.95;;;4.60;;
8636;SDS011;4356;49.068;8.658;2023-09-12T10:31:08;4.82;;;4.43;;
8636;SDS011;4356;49.068;8.658;2023-09-12T10:33:37;5.43;;;4.95;;
8636;SDS011;4356;49.068;8.658;2023-09-12T10:36:03;5.95;;;5.40;;
8636;SDS011;4356;49.068;8.658;2023-09-12T10:38:30;4.90;;;4.50;;
8636;SDS011;4356;49.068;8.658;2023-09-12T10:40:58;5.20;;;4.80;;
8636;SDS011;4356;49.068;8.658;2023-09-12T10:43:26;7.10;;;5.18;;
8636;SDS011;4356;49.068;8.658;2023-09-12T10:45:51;5.80;;;4.80;;
8636;SDS011;4356;49.068;8.658;2023-09-12T10:48:17;4.82;;;4.53;;
8636;SDS011;4356;49.068;8.658;2023-09-12T10:50:43;4.60;;;4.30;;
8636;SDS011;4356;49.068;8.658;2023-09-12T10:53:13;5.13;;;4.72;;
8636;SDS011;4356;49.068;8.658;2023-09-12T10:55:39;5.25;;;4.95;;
8636;SDS011;4356;49.068;8.658;2023-09-12T10:58:07;5.75;;;5.25;;
8636;SDS011;4356;49.068;8.658;2023-09-12T11:00:38;10.30;;;4.57;;
8636;SDS011;4356;49.068;8.658;2023-09-12T11:05:53;6.10;;;5.10;;
8636;SDS011;4356;49.068;8.658;2023-09-12T11:08:20;8.23;;;4.97;;
8636;SDS011;4356;49.068;8.658;2023-09-12T11:10:53;4.95;;;4.65;;
8636;SDS011;4356;49.068;8.658;2023-09-12T11:13:46;6.07;;;5.13;;
8636;SDS011;4356;49.068;8.658;2023-09-12T11:21:37;5.22;;;4.82;;
8636;SDS011;4356;49.068;8.658;2023-09-12T11:24:02;5.93;;;5.07;;
8636;SDS011;4356;49.068;8.658;2023-09-12T11:26:29;6.40;;;5.47;;
8636;SDS011;4356;49.068;8.658;2023-09-12T11:28:54;5.05;;;4.75;;
8636;SDS011;4356;49.068;8.658;2023-09-12T11:31:26;5.60;;;4.78;;
8636;SDS011;4356;49.068;8.658;2023-09-12T11:33:52;5.22;;;4.72;;
8636;SDS011;4356;49.068;8.658;2023-09-12T11:36:18;5.53;;;5.05;;
8636;SDS011;4356;49.068;8.658;2023-09-12T11:38:49;4.88;;;4.57;;
8636;SDS011;4356;49.068;8.658;2023-09-12T11:41:38;5.50;;;5.10;;
8636;SDS011;4356;49.068;8.658;2023-09-12T11:44:06;4.68;;;4.38;;
8636;SDS011;4356;49.068;8.658;2023-09-12T11:46:32;4.57;;;4.28;;
8636;SDS011;4356;49.068;8.658;2023-09-12T11:49:00;4.85;;;4.40;;
8636;SDS011;4356;49.068;8.658;2023-09-12T11:51:27;4.72;;;4.32;;
8636;SDS011;4356;49.068;8.658;2023-09-12T11:53:52;4.50;;;4.20;;
8636;SDS011;4356;49.068;8.658;2023-09-12T11:56:20;4.70;;;4.35;;
8636;SDS011;4356;49.068;8.658;2023-09-12T11:58:45;4.60;;;4.30;;
8636;SDS011;4356;49.068;8.658;2023-09-12T12:01:11;6.25;;;4.60;;
8636;SDS011;4356;49.068;8.658;2023-09-12T12:03:38;4.93;;;4.63;;
8636;SDS011;4356;49.068;8.658;2023-09-12T12:06:04;5.40;;;4.50;;
8636;SDS011;4356;49.068;8.658;2023-09-12T12:08:30;4.78;;;4.47;;
8636;SDS011;4356;49.068;8.658;2023-09-12T12:10:56;4.75;;;4.40;;
8636;SDS011;4356;49.068;8.658;2023-09-12T12:13:25;4.60;;;4.30;;
8636;SDS011;4356;49.068;8.658;2023-09-12T12:15:50;4.72;;;4.43;;
8636;SDS011;4356;49.068;8.658;2023-09-12T12:18:16;5.07;;;4.70;;
8636;SDS011;4356;49.068;8.658;2023-09-12T12:20:41;4.97;;;4.47;;
8636;SDS011;4356;49.068;8.658;2023-09-12T12:23:07;5.18;;;4.68;;
8636;SDS011;4356;49.068;8.658;2023-09-12T12:25:33;4.43;;;4.20;;
8636;SDS011;4356;49.068;8.658;2023-09-12T12:28:00;4.15;;;3.95;;
8636;SDS011;4356;49.068;8.658;2023-09-12T12:30:26;4.70;;;4.30;;
8636;SDS011;4356;49.068;8.658;2023-09-12T12:32:55;5.03;;;4.63;;
8636;SDS011;4356;49.068;8.658;2023-09-12T12:35:21;5.15;;;4.63;;
8636;SDS011;4356;49.068;8.658;2023-09-12T12:37:49;4.97;;;4.50;;
8636;SDS011;4356;49.068;8.658;2023-09-12T12:40:15;4.70;;;4.40;;
8636;SDS011;4356;49.068;8.658;2023-09-12T12:42:42;4.90;;;4.60;;
8636;SDS011;4356;49.068;8.658;2023-09-12T12:45:15;5.40;;;4.13;;
8636;SDS011;4356;49.068;8.658;2023-09-12T12:47:42;5.30;;;4.90;;
8636;SDS011;4356;49.068;8.658;2023-09-12T12:52:39;5.55;;;4.22;;
8636;SDS011;4356;49.068;8.658;2023-09-12T12:55:05;4.60;;;4.30;;
8636;SDS011;4356;49.068;8.658;2023-09-12T12:57:35;4.95;;;4.55;;
8636;SDS011;4356;49.068;8.658;2023-09-12T13:00:01;4.60;;;4.30;;
8636;SDS011;4356;49.068;8.658;2023-09-12T13:02:28;4.20;;;3.92;;
8636;SDS011;4356;49.068;8.658;2023-09-12T13:04:53;4.47;;;4.18;;
8636;SDS011;4356;49.068;8.658;2023-09-12T13:07:18;8.30;;;5.07;;
8636;SDS011;4356;49.068;8.658;2023-09-12T13:09:44;4.75;;;4.38;;
8636;SDS011;4356;49.068;8.658;2023-09-12T13:12:12;4.85;;;4.55;;
8636;SDS011;4356;49.068;8.658;2023-09-12T13:14:39;4.68;;;4.38;;
8636;SDS011;4356;49.068;8.658;2023-09-12T13:17:05;4.47;;;4.10;;
8636;SDS011;4356;49.068;8.658;2023-09-12T13:19:30;4.90;;;4.38;;
8636;SDS011;4356;49.068;8.658;2023-09-12T13:21:56;5.22;;;4.93;;
8636;SDS011;4356;49.068;8.658;2023-09-12T13:24:22;4.97;;;4.40;;
8636;SDS011;4356;49.068;8.658;2023-09-12T13:26:48;4.93;;;4.50;;
8636;SDS011;4356;49.068;8.658;2023-09-12T13:29:13;8.30;;;4.22;;
8636;SDS011;4356;49.068;8.658;2023-09-12T13:31:39;4.57;;;4.15;;
8636;SDS011;4356;49.068;8.658;2023-09-12T13:34:04;4.65;;;4.35;;
8636;SDS011;4356;49.068;8.658;2023-09-12T13:36:29;5.30;;;3.88;;
8636;SDS011;4356;49.068;8.658;2023-09-12T13:38:55;5.55;;;3.95;;
8636;SDS011;4356;49.068;8.658;2023-09-12T13:41:21;4.10;;;3.80;;
8636;SDS011;4356;49.068;8.658;2023-09-12T13:43:48;5.38;;;4.50;;
8636;SDS011;4356;49.068;8.658;2023-09-12T13:46:13;5.05;;;4.65;;
8636;SDS011;4356;49.068;8.658;2023-09-12T13:48:39;4.55;;;4.25;;
8636;SDS011;4356;49.068;8.658;2023-09-12T13:51:04;6.10;;;4.00;;
8636;SDS011;4356;49.068;8.658;2023-09-12T13:53:30;4.40;;;4.10;;
8636;SDS011;4356;49.068;8.658;2023-09-12T13:55:56;4.18;;;3.83;;
8636;SDS011;4356;49.068;8.658;2023-09-12T13:58:23;4.15;;;3.95;;
8636;SDS011;4356;49.068;8.658;2023-09-12T14:00:48;4.28;;;3.97;;
8636;SDS011;4356;49.068;8.658;2023-09-12T14:03:14;4.32;;;4.03;;
8636;SDS011;4356;49.068;8.658;2023-09-12T14:05:40;4.15;;;3.80;;
8636;SDS011;4356;49.068;8.658;2023-09-12T14:08:06;4.20;;;3.90;;
8636;SDS011;4356;49.068;8.658;2023-09-12T14:10:31;4.00;;;3.70;;
8636;SDS011;4356;49.068;8.658;2023-09-12T14:12:57;4.20;;;3.90;;
8636;SDS011;4356;49.068;8.658;2023-09-12T14:15:22;6.10;;;4.07;;
8636;SDS011;4356;49.068;8.658;2023-09-12T14:17:48;5.22;;;4.00;;
8636;SDS011;4356;49.068;8.658;2023-09-12T14:20:13;3.80;;;3.50;;
8636;SDS011;4356;49.068;8.658;2023-09-12T14:22:40;6.50;;;3.75;;
8636;SDS011;4356;49.068;8.658;2023-09-12T14:25:07;4.32;;;3.92;;
8636;SDS011;4356;49.068;8.658;2023-09-12T14:27:33;3.88;;;3.67;;
8636;SDS011;4356;49.068;8.658;2023-09-12T14:29:59;4.20;;;3.95;;
8636;SDS011;4356;49.068;8.658;2023-09-12T14:32:24;4.00;;;3.75;;
8636;SDS011;4356;49.068;8.658;2023-09-12T14:34:50;4.15;;;3.75;;
8636;SDS011;4356;49.068;8.658;2023-09-12T14:37:16;4.32;;;4.03;;
8636;SDS011;4356;49.068;8.658;2023-09-12T14:39:41;6.22;;;4.00;;
8636;SDS011;4356;49.068;8.658;2023-09-12T14:42:06;3.65;;;3.40;;
8636;SDS011;4356;49.068;8.658;2023-09-12T14:44:34;4.50;;;3.90;;
8636;SDS011;4356;49.068;8.658;2023-09-12T14:47:00;4.55;;;4.20;;
8636;SDS011;4356;49.068;8.658;2023-09-12T14:49:25;3.85;;;3.65;;
8636;SDS011;4356;49.068;8.658;2023-09-12T14:51:51;4.18;;;3.97;;
8636;SDS011;4356;49.068;8.658;2023-09-12T14:54:16;3.75;;;3.55;;
8636;SDS011;4356;49.068;8.658;2023-09-12T14:56:41;4.00;;;3.80;;
8636;SDS011;4356;49.068;8.658;2023-09-12T14:59:07;4.32;;;4.03;;
8636;SDS011;4356;49.068;8.658;2023-09-12T15:01:33;4.03;;;3.72;;
8636;SDS011;4356;49.068;8.658;2023-09-12T15:04:00;3.92;;;3.63;;
8636;SDS011;4356;49.068;8.658;2023-09-12T15:06:26;4.05;;;3.85;;
8636;SDS011;4356;49.068;8.658;2023-09-12T15:08:52;4.20;;;3.88;;
8636;SDS011;4356;49.068;8.658;2023-09-12T15:11:17;3.60;;;3.33;;
8636;SDS011;4356;49.068;8.658;2023-09-12T15:13:43;4.03;;;3.72;;
8636;SDS011;4356;49.068;8.658;2023-09-12T15:16:09;4.40;;;4.10;;
8636;SDS011;4356;49.068;8.658;2023-09-12T15:18:34;4.10;;;3.90;;
8636;SDS011;4356;49.068;8.658;2023-09-12T15:21:00;4.20;;;3.90;;
8636;SDS011;4356;49.068;8.658;2023-09-12T15:23:26;4.18;;;3.97;;
8636;SDS011;4356;49.068;8.658;2023-09-12T15:25:53;4.32;;;4.03;;